AirNav   ATP
 
 1344 users online  

45XA Beulah Airport
Seguin, Texas, USA

GOING TO SEGUIN?


FAA INFORMATION EFFECTIVE 24 MAY 2018

Location

FAA Identifier: 45XA
Lat/Long: 29-29-42.4000N / 098-03-27.5000W
29-29.706667N / 098-03.458333W
29.4951111 / -98.0576389
(estimated)
Elevation: 600 ft. / 183 m (estimated)
From city: 6 miles SW of SEGUIN, TX
Time zone: UTC -5 (UTC -6 during Standard Time)
Zip code: 78155

Airport Operations

Airport use: Private use. Permission required prior to landing
Activation date: 03/2011
Control tower: no
ARTCC: HOUSTON CENTER
FSS: SAN ANGELO FLIGHT SERVICE STATION
Attendance: UNATNDD
Segmented circle: no

Airport Communications

WX ASOS at BAZ (13 nm N): 119.325 (830-629-7979)

Nearby radio navigation aids

VOR radial/distance  VOR name  Freq  Var
RNDr092/12.0RANDOLPH VORTAC112.3005E
SATr105/22.9SAN ANTONIO VORTAC116.8008E
SSFr046/(24.7)STINSON VOR108.4009E

Airport Services

Runway Information

Runway 18/36

Dimensions: 4000 x 100 ft. / 1219 x 30 m
Surface: turf
RUNWAY 18  RUNWAY 36
Traffic pattern: leftleft
Displaced threshold: 600 ft.no
Obstructions: 30 ft. pline, 75 ft. from runwaynone

Airport Ownership and Management from official FAA records

Ownership: Privately-owned
Owner: SENG MARAN
4545 FM 775
SEGUIN, TX 78155
Phone 210-717-1113
Manager: SENG MARAN
4545 FM 775
SEGUIN, TX 78155
Phone 210-717-1113

Airport Operational Statistics

Aircraft based on the field: 3
Single engine airplanes: 3
    

Instrument Procedures

There are no published instrument procedures at 45XA.

Some nearby airports with instrument procedures:

KRND - Randolph Air Force Base (12 nm W)
KBAZ - New Braunfels Regional Airport (13 nm N)
KSAT - San Antonio International Airport (22 nm W)
KSSF - Stinson Municipal Airport (24 nm SW)
KHYI - San Marcos Regional Airport (26 nm NE)
 
Loc | Ops | Rwys | IFR | FBO | Links
Com | Nav | Svcs | Stats | Notes

AirNav Hotels Sweepstakes
 
Aerial photo
No photo
 
Sectional chart

 
Airport distance calculator
Flying to Beulah Airport? Find the distance to fly.

From to 45XA

Sunrise and sunset
Times for 24-May-2018
 Local
(UTC-5)
 Zulu
(UTC)
Morning civil twilight06:1011:10
Sunrise06:3611:36
Sunset20:2201:22
Evening civil twilight20:4801:48

Current date and time
Zulu (UTC)  24-May-2018 13:53:11
Local (UTC-5)  24-May-2018 08:53:11
 
METAR
KRND 
11nm W 
241317Z 17005KT 7SM BKN006 OVC010 23/23 A3006 RMK SLP172
KBAZ 
13nm N 
241310Z 15005KT 1/2SM FG OVC002 23/22 A3005 RMK AO2 T02280222
KSAT 
21nm W 
241251Z 12005KT 8SM OVC008 23/22 A3006 RMK AO2 SLP163 VCSH N-E T02330217
TAF
KRND 
11nm W 
241140Z 2411/2515 12006KT 4800 BR OVC004 QNH3003INS TEMPO 2411/2414 1600 BR SCT004 OVC012 BECMG 2414/2415 14009KT 9999 NSW SCT010 BKN020 QNH3002INS BECMG 2416/2417 15009KT 9999 BKN040 QNH2994INS BECMG 2509/2510 17006KT 9999 OVC010 QNH3003INS BECMG 2514/2515 17009KT 9999 BKN025 QNH3004INS TX33/2422Z TN20/2411Z
NOTAMs
Click for the latest NOTAMs
NOTAMs are issued by the DoD/FAA and will open in a separate window not controlled by AirNav.

 

 
 

Would you like to see your business listed on this page?

 If your business provides an interesting product or service to pilots, flight crews, aircraft, or users of the Beulah Airport, you should consider listing it here.  To start the listing process, click on the button below
 
Add a business
 

Other Pages about Beulah Airport

Update a link
 
Copyright © AirNav, LLC. All rights reserved. Privacy Policy  Contact